createdAt,value
2023-05-19T00:04:17.309Z,20.89
2023-05-19T00:09:21.236Z,20.89
2023-05-19T00:14:25.251Z,20.86
2023-05-19T00:19:32.566Z,20.86
2023-05-19T00:24:36.181Z,20.86
2023-05-19T00:29:39.683Z,20.85
2023-05-19T00:34:44.762Z,20.86
2023-05-19T00:39:48.314Z,20.84
2023-05-19T00:44:51.870Z,20.85
2023-05-19T00:49:56.809Z,20.85
2023-05-19T00:55:01.053Z,20.85
2023-05-19T01:00:05.954Z,20.85
2023-05-19T01:05:11.925Z,20.81
2023-05-19T01:10:15.459Z,20.81
2023-05-19T01:15:19.156Z,20.80
2023-05-19T01:20:29.497Z,20.80
2023-05-19T01:26:04.072Z,20.82
2023-05-19T01:31:12.104Z,20.81
2023-05-19T01:36:16.493Z,20.78
2023-05-19T01:41:21.185Z,20.77
2023-05-19T01:46:26.444Z,20.78
2023-05-19T01:51:30.039Z,20.78
2023-05-19T01:56:42.418Z,20.78
2023-05-19T02:01:53.525Z,20.79
2023-05-19T02:07:03.078Z,20.76
2023-05-19T02:12:12.787Z,20.77
2023-05-19T02:17:18.386Z,20.76
2023-05-19T02:22:21.906Z,20.77
2023-05-19T02:27:26.499Z,20.76
2023-05-19T02:32:31.785Z,20.77
2023-05-19T02:37:35.653Z,20.75
2023-05-19T02:42:39.157Z,20.74
2023-05-19T02:47:44.103Z,20.72
2023-05-19T02:52:47.667Z,20.73
2023-05-19T02:57:51.200Z,20.73
2023-05-19T03:02:56.194Z,20.71
2023-05-19T03:08:00.091Z,20.72
2023-05-19T03:13:03.692Z,20.73
2023-05-19T03:18:08.752Z,20.71
2023-05-19T03:23:12.785Z,20.70
2023-05-19T03:28:17.343Z,20.70
2023-05-19T03:33:22.539Z,20.68
2023-05-19T03:38:26.308Z,20.68
2023-05-19T03:43:29.889Z,20.69
2023-05-19T03:48:34.909Z,20.69
2023-05-19T03:53:38.500Z,20.68
2023-05-19T03:58:43.740Z,20.69
2023-05-19T04:03:48.737Z,20.67
2023-05-19T04:08:52.279Z,20.65
2023-05-19T04:13:55.911Z,20.66
2023-05-19T04:19:00.984Z,20.66
2023-05-19T04:24:06.804Z,20.65
2023-05-19T04:29:10.972Z,20.63
2023-05-19T04:34:15.958Z,20.65
2023-05-19T04:39:19.549Z,20.63
2023-05-19T04:44:23.059Z,20.62
2023-05-19T04:49:27.975Z,20.65
2023-05-19T04:54:31.507Z,20.63
2023-05-19T04:59:35.033Z,20.63
2023-05-19T05:04:42.851Z,20.59
2023-05-19T05:09:46.355Z,20.61
2023-05-19T05:14:50.418Z,20.59
2023-05-19T05:19:57.584Z,20.60
2023-05-19T05:25:02.383Z,20.60
2023-05-19T05:30:06.913Z,20.58
2023-05-19T05:35:12.321Z,20.57
2023-05-19T05:40:16.125Z,20.56
2023-05-19T05:45:20.030Z,20.59
2023-05-19T05:50:25.690Z,20.55
2023-05-19T05:55:30.279Z,20.56
2023-05-19T06:00:35.042Z,20.55
2023-05-19T06:05:40.288Z,20.57
2023-05-19T06:10:45.787Z,20.55
2023-05-19T06:15:50.893Z,20.54
2023-05-19T06:20:56.029Z,20.57
2023-05-19T06:25:59.554Z,20.54
2023-05-19T06:31:03.149Z,20.56
2023-05-19T06:36:10.361Z,20.55
2023-05-19T06:41:14.233Z,20.56
2023-05-19T06:46:18.092Z,20.55
2023-05-19T06:51:23.139Z,20.58
2023-05-19T06:56:26.703Z,20.58
2023-05-19T07:01:31.188Z,20.58
2023-05-19T07:06:36.201Z,20.60
2023-05-19T07:11:39.788Z,20.60
2023-05-19T07:16:43.469Z,20.61
2023-05-19T07:21:48.578Z,20.61
2023-05-19T07:26:52.203Z,20.60
2023-05-19T07:31:58.199Z,20.61
2023-05-19T07:37:03.636Z,20.63
2023-05-19T07:42:07.380Z,20.62
2023-05-19T07:47:10.908Z,20.63
2023-05-19T07:52:15.966Z,20.63
2023-05-19T07:57:19.516Z,20.63
2023-05-19T08:02:23.158Z,20.64
2023-05-19T08:07:28.220Z,20.64
2023-05-19T08:12:31.800Z,20.65
2023-05-19T08:17:35.416Z,20.66
2023-05-19T08:22:40.571Z,20.64
2023-05-19T08:27:44.128Z,20.65
2023-05-19T08:32:48.904Z,20.63
2023-05-19T08:37:53.950Z,20.66
2023-05-19T08:42:57.496Z,20.64
2023-05-19T08:48:01.162Z,20.65
2023-05-19T08:53:21.067Z,20.64
2023-05-19T08:58:35.042Z,20.65
2023-05-19T09:03:39.515Z,20.64
2023-05-19T09:08:45.517Z,20.65
2023-05-19T09:13:49.741Z,20.63
2023-05-19T09:18:57.333Z,20.65
2023-05-19T09:24:06.590Z,20.65
2023-05-19T09:29:13.958Z,20.65
2023-05-19T09:34:17.813Z,20.67
2023-05-19T09:39:24.233Z,20.66
2023-05-19T09:44:30.104Z,20.67
2023-05-19T09:49:34.128Z,20.68
2023-05-19T09:54:39.731Z,20.68
2023-05-19T09:59:44.056Z,20.69
2023-05-19T10:04:48.141Z,20.70
2023-05-19T10:09:53.888Z,20.69
2023-05-19T10:14:57.433Z,20.68
2023-05-19T10:20:01.151Z,20.69
2023-05-19T10:25:07.165Z,20.69
2023-05-19T10:30:16.520Z,20.68
2023-05-19T10:35:38.184Z,20.69
2023-05-19T10:40:53.146Z,20.69
2023-05-19T10:45:56.889Z,20.69
2023-05-19T10:51:00.466Z,20.70
2023-05-19T10:56:07.276Z,20.71
2023-05-19T11:01:11.671Z,20.70
2023-05-19T11:06:28.552Z,20.71
2023-05-19T11:11:48.077Z,20.72
2023-05-19T11:16:52.696Z,20.72
2023-05-19T11:21:57.884Z,20.74
2023-05-19T11:27:22.191Z,20.72
2023-05-19T11:32:28.927Z,20.71
2023-05-19T11:37:34.814Z,20.70
2023-05-19T11:42:39.822Z,20.73
2023-05-19T11:48:00.280Z,20.73
2023-05-19T11:53:06.056Z,20.73
2023-05-19T11:58:11.339Z,20.74
2023-05-19T12:03:15.176Z,20.73
2023-05-19T12:08:19.776Z,20.74
2023-05-19T12:13:24.873Z,20.75
2023-05-19T12:18:31.900Z,20.73
2023-05-19T12:23:36.748Z,20.73
2023-05-19T12:28:41.823Z,20.74
2023-05-19T12:33:45.362Z,20.75
2023-05-19T12:38:49.071Z,20.74
2023-05-19T12:43:54.092Z,20.74
2023-05-19T12:49:00.959Z,20.75
2023-05-19T12:54:05.060Z,20.75
2023-05-19T12:59:10.148Z,20.73
2023-05-19T13:04:13.950Z,20.74
2023-05-19T13:09:18.069Z,20.75
2023-05-19T13:14:23.887Z,20.73
2023-05-19T13:19:27.968Z,20.73
2023-05-19T13:24:31.512Z,20.74
2023-05-19T13:29:37.739Z,20.73
2023-05-19T13:34:41.234Z,20.74
2023-05-19T13:39:44.798Z,20.75
2023-05-19T13:44:49.763Z,20.76
2023-05-19T13:49:53.983Z,20.74
2023-05-19T13:54:57.900Z,20.75
2023-05-19T14:00:04.646Z,20.74
2023-05-19T14:05:08.959Z,20.76
2023-05-19T14:10:12.974Z,20.78
2023-05-19T14:15:17.960Z,20.76
2023-05-19T14:20:21.486Z,20.77
2023-05-19T14:25:25.070Z,20.76
2023-05-19T14:30:30.288Z,20.77
2023-05-19T14:35:33.873Z,20.75
2023-05-19T14:40:38.422Z,20.77
2023-05-19T14:45:43.432Z,20.75
2023-05-19T14:50:48.524Z,20.76
2023-05-19T14:55:52.101Z,20.77
2023-05-19T15:00:59.233Z,20.77
2023-05-19T15:06:02.832Z,20.77
2023-05-19T15:11:06.567Z,20.77
2023-05-19T15:21:17.928Z,20.79
2023-05-19T15:26:21.466Z,20.79
2023-05-19T15:31:26.579Z,20.78
2023-05-19T15:36:30.153Z,20.78
2023-05-19T15:41:33.693Z,20.79
2023-05-19T15:46:38.883Z,20.78
2023-05-19T15:51:42.491Z,20.80
2023-05-19T15:56:46.109Z,20.79
2023-05-19T16:01:52.998Z,20.80
2023-05-19T16:06:56.791Z,20.81
2023-05-19T16:12:00.277Z,20.80
2023-05-19T16:17:05.389Z,20.80
2023-05-19T16:22:08.924Z,20.82
2023-05-19T16:27:12.423Z,20.81
2023-05-19T16:32:17.453Z,20.81
2023-05-19T16:37:20.997Z,20.80
2023-05-19T16:42:24.693Z,20.81
2023-05-19T16:47:29.639Z,20.82
2023-05-19T16:52:33.140Z,20.82
2023-05-19T16:57:36.843Z,20.82
2023-05-19T17:02:41.963Z,20.82
2023-05-19T17:07:45.569Z,20.83
2023-05-19T17:12:49.114Z,20.86
2023-05-19T17:17:54.092Z,20.83
2023-05-19T17:22:58.164Z,20.85
2023-05-19T17:28:01.755Z,20.85
2023-05-19T17:33:06.897Z,20.85
2023-05-19T17:38:10.469Z,20.84
2023-05-19T17:43:14.032Z,20.85
2023-05-19T17:48:18.949Z,20.85
2023-05-19T17:53:22.915Z,20.83
2023-05-19T17:58:27.113Z,20.85
2023-05-19T18:03:32.713Z,20.85
2023-05-19T18:08:38.367Z,20.87
2023-05-19T18:13:42.876Z,20.87
2023-05-19T18:18:50.750Z,20.85
2023-05-19T18:23:54.393Z,20.86
2023-05-19T18:29:02.708Z,20.86
2023-05-19T18:34:08.059Z,20.89
2023-05-19T18:39:11.658Z,20.89
2023-05-19T18:44:15.209Z,20.89
2023-05-19T18:49:20.182Z,20.89
2023-05-19T18:54:23.717Z,20.91
2023-05-19T18:59:27.868Z,20.91
2023-05-19T19:04:32.853Z,20.90
2023-05-19T19:09:36.468Z,20.90
2023-05-19T19:14:40.008Z,20.90
2023-05-19T19:19:45.255Z,20.89
2023-05-19T19:24:48.859Z,20.89
2023-05-19T19:29:52.390Z,20.91
2023-05-19T19:34:57.347Z,20.91
2023-05-19T19:40:00.946Z,20.92
2023-05-19T19:45:04.636Z,20.92
2023-05-19T19:50:10.832Z,20.90
2023-05-19T19:55:14.538Z,20.90
2023-05-19T20:00:18.767Z,20.91
2023-05-19T20:05:23.837Z,20.91
2023-05-19T20:10:27.430Z,20.91
2023-05-19T20:15:31.828Z,20.93
2023-05-19T20:20:36.885Z,20.91
2023-05-19T20:25:58.542Z,20.91
2023-05-19T20:31:07.077Z,20.91
2023-05-19T20:36:12.278Z,20.90
2023-05-19T20:41:16.298Z,20.89
2023-05-19T20:46:19.906Z,20.89
2023-05-19T20:51:25.484Z,20.90
2023-05-19T20:56:29.093Z,20.91
2023-05-19T21:01:32.819Z,20.88
2023-05-19T21:06:37.861Z,20.89
2023-05-19T21:11:41.569Z,20.89
2023-05-19T21:16:45.198Z,20.90
2023-05-19T21:21:50.504Z,20.88
2023-05-19T21:26:54.088Z,20.88
2023-05-19T21:31:59.233Z,20.87
2023-05-19T21:37:04.218Z,20.89
2023-05-19T21:42:07.723Z,20.88
2023-05-19T21:47:11.290Z,20.89
2023-05-19T21:52:16.294Z,20.91
2023-05-19T21:57:19.829Z,20.91
2023-05-19T22:02:23.397Z,20.90
2023-05-19T22:07:28.821Z,20.88
2023-05-19T22:12:32.575Z,20.90
2023-05-19T22:17:36.135Z,20.89
2023-05-19T22:22:41.111Z,20.88
2023-05-19T22:27:44.688Z,20.88
2023-05-19T22:32:48.258Z,20.88
2023-05-19T22:37:53.222Z,20.89
2023-05-19T22:42:56.759Z,20.87
2023-05-19T22:48:00.333Z,20.88
2023-05-19T22:53:05.291Z,20.88
2023-05-19T22:58:09.201Z,20.88
2023-05-19T23:03:12.802Z,20.89
2023-05-19T23:08:17.926Z,20.88
2023-05-19T23:13:21.541Z,20.88
2023-05-19T23:18:25.156Z,20.87
2023-05-19T23:23:30.232Z,20.88
2023-05-19T23:28:33.816Z,20.88
2023-05-19T23:33:37.433Z,20.88
2023-05-19T23:38:42.354Z,20.87
2023-05-19T23:43:45.940Z,20.87
2023-05-19T23:48:49.458Z,20.86
2023-05-19T23:53:54.384Z,20.87
2023-05-19T23:58:57.912Z,20.88
